createdAt,value
2022-08-21T00:03:42.366Z,0
2022-08-21T00:13:19.977Z,0
2022-08-21T00:22:57.511Z,0
2022-08-21T00:32:34.311Z,0
2022-08-21T00:42:11.067Z,0
2022-08-21T00:51:48.007Z,0
2022-08-21T01:01:25.249Z,0
2022-08-21T01:39:52.896Z,0
2022-08-21T01:49:29.734Z,0
2022-08-21T01:59:07.124Z,0
2022-08-21T02:08:44.586Z,0
2022-08-21T02:18:21.525Z,0
2022-08-21T02:27:58.701Z,0
2022-08-21T02:37:35.464Z,0
2022-08-21T02:47:12.607Z,0
2022-08-21T02:56:49.687Z,0
2022-08-21T03:06:26.366Z,0
2022-08-21T03:16:04.197Z,0
2022-08-21T03:25:41.188Z,0
2022-08-21T03:35:18.136Z,0
2022-08-21T03:44:55.404Z,0.83
2022-08-21T03:54:32.241Z,5
2022-08-21T04:04:09.875Z,19.17
2022-08-21T04:13:47.451Z,36.67
2022-08-21T04:23:25.113Z,65
2022-08-21T04:42:39.538Z,142.5
2022-08-21T04:52:16.720Z,250.83
2022-08-21T05:01:54.201Z,250.83
2022-08-21T05:21:09.225Z,333.33
2022-08-21T05:30:47.019Z,361.67
2022-08-21T05:40:24.923Z,370
2022-08-21T05:50:02.124Z,391.67
2022-08-21T05:59:39.704Z,623.33
2022-08-21T06:09:17.415Z,945
2022-08-21T06:18:56.680Z,1126.67
2022-08-21T06:28:32.173Z,1450.83
2022-08-21T06:38:10.311Z,1753.33
2022-08-21T06:47:48.164Z,1250
2022-08-21T06:57:25.953Z,1640
2022-08-21T07:07:04.598Z,1883.33
2022-08-21T07:16:43.608Z,2358.33
2022-08-21T07:36:00.973Z,4070.83
2022-08-21T07:55:16.223Z,3419.17
2022-08-21T08:04:54.667Z,3007.5
2022-08-21T08:14:31.730Z,2550
2022-08-21T08:24:18.638Z,2697.5
2022-08-21T08:43:24.853Z,2295.83
2022-08-21T08:53:02.760Z,3049.17
2022-08-21T09:02:41.007Z,3347.5
2022-08-21T09:12:19.162Z,3515.83
2022-08-21T09:21:59.802Z,4036.67
2022-08-21T09:31:38.673Z,6768.33
2022-08-21T09:41:19.154Z,6747.5
2022-08-21T10:00:47.368Z,17064.17
2022-08-21T10:10:30.149Z,16577.5
2022-08-21T10:20:13.815Z,21985
2022-08-21T10:29:57.326Z,20945.83
2022-08-21T10:39:37.034Z,25155
2022-08-21T10:49:14.769Z,26982.5
2022-08-21T11:08:27.588Z,8109.17
2022-08-21T11:18:12.279Z,33696.66
2022-08-21T11:27:52.689Z,41478.33
2022-08-21T11:37:37.331Z,36012.5
2022-08-21T11:47:15.807Z,11130.83
2022-08-21T11:56:36.127Z,6180.83
2022-08-21T12:06:07.403Z,7475
2022-08-21T12:15:36.515Z,4980
2022-08-21T12:25:10.224Z,21371.67
2022-08-21T12:35:00.868Z,35481.66
2022-08-21T12:44:55.688Z,38394.16
2022-08-21T12:54:39.542Z,44073.33
2022-08-21T13:04:20.862Z,33670
2022-08-21T13:14:01.202Z,38173.33
2022-08-21T13:23:20.690Z,8796.67
2022-08-21T13:32:52.930Z,25565.83
2022-08-21T13:52:16.511Z,6570.83
2022-08-21T14:01:49.645Z,19849.17
2022-08-21T14:11:37.687Z,18150
2022-08-21T14:21:06.819Z,14865.83
2022-08-21T14:30:46.414Z,14312.5
2022-08-21T14:40:26.873Z,16067.5
2022-08-21T15:09:21.501Z,9339.17
2022-08-21T15:18:57.071Z,10764.17
2022-08-21T15:28:26.127Z,8676.67
2022-08-21T15:37:55.317Z,4971.67
2022-08-21T15:47:28.647Z,4654.17
2022-08-21T15:57:05.246Z,4450.83
2022-08-21T16:25:49.350Z,1907.5
2022-08-21T16:35:24.452Z,1660.83
2022-08-21T16:45:00.486Z,1447.5
2022-08-21T17:04:13.921Z,1184.17
2022-08-21T17:13:50.582Z,1087.5
2022-08-21T17:23:27.343Z,951.67
2022-08-21T17:33:04.142Z,792.5
2022-08-21T17:52:16.844Z,446.67
2022-08-21T18:01:53.519Z,301.67
2022-08-21T18:11:30.748Z,146.67
2022-08-21T18:21:06.842Z,70
2022-08-21T18:30:42.975Z,27.5
2022-08-21T18:40:19.227Z,7.5
2022-08-21T18:49:55.371Z,1.67
2022-08-21T18:59:31.136Z,0.83
2022-08-21T19:09:07.411Z,0
2022-08-21T19:18:44.122Z,0
2022-08-21T19:28:20.565Z,0
2022-08-21T19:37:57.166Z,0
2022-08-21T19:57:10.015Z,0
2022-08-21T20:06:46.506Z,0
2022-08-21T20:16:23.166Z,0
2022-08-21T20:25:59.810Z,0
2022-08-21T20:35:36.511Z,0
2022-08-21T20:45:13.685Z,0
2022-08-21T20:54:50.461Z,0
2022-08-21T21:04:27.317Z,0
2022-08-21T21:14:05.198Z,0
2022-08-21T21:23:41.241Z,0
2022-08-21T21:33:17.971Z,0
2022-08-21T21:42:54.998Z,0
2022-08-21T21:52:31.947Z,0
2022-08-21T22:02:09.018Z,0
2022-08-21T22:11:45.923Z,0
2022-08-21T22:30:59.755Z,0
2022-08-21T22:40:36.538Z,0
2022-08-21T22:50:13.555Z,0
2022-08-21T22:59:50.834Z,0
2022-08-21T23:09:28.145Z,0
2022-08-21T23:19:05.100Z,0
2022-08-21T23:28:43.646Z,0
2022-08-21T23:38:19.527Z,0
2022-08-21T23:47:56.053Z,0
2022-08-21T23:57:33.068Z,0
